createdAt,value
2023-04-30T00:02:18.391Z,101719.44
2023-04-30T00:04:45.277Z,101720.47
2023-04-30T00:07:12.241Z,101724.09
2023-04-30T00:09:38.984Z,101731.22
2023-04-30T00:12:05.919Z,101726.72
2023-04-30T00:14:32.652Z,101721.63
2023-04-30T00:16:59.503Z,101725.28
2023-04-30T00:19:26.358Z,101722.88
2023-04-30T00:21:53.082Z,101724.06
2023-04-30T00:24:19.783Z,101716.16
2023-04-30T00:26:46.616Z,101720.72
2023-04-30T00:29:13.413Z,101710.50
2023-04-30T00:31:40.201Z,101712.53
2023-04-30T00:34:06.980Z,101704.81
2023-04-30T00:36:33.743Z,101714.66
2023-04-30T00:39:00.508Z,101712.16
2023-04-30T00:41:28.017Z,101704.66
2023-04-30T00:43:54.748Z,101708.38
2023-04-30T00:46:21.527Z,101716.47
2023-04-30T00:48:49.218Z,101710.69
2023-04-30T00:51:16.585Z,101708.44
2023-04-30T00:53:44.264Z,101705.41
2023-04-30T00:56:12.914Z,101699.81
2023-04-30T00:58:40.542Z,101712.31
2023-04-30T01:01:07.578Z,101716.19
2023-04-30T01:03:36.544Z,101702.47
2023-04-30T01:06:03.706Z,101698.53
2023-04-30T01:08:32.300Z,101692.63
2023-04-30T01:11:22.612Z,101693.63
2023-04-30T01:14:12.434Z,101707.06
2023-04-30T01:17:06.233Z,101700.28
2023-04-30T01:19:38.621Z,101718.84
2023-04-30T01:22:09.683Z,101709.31
2023-04-30T01:24:55.192Z,101716.47
2023-04-30T01:27:58.883Z,101710.38
2023-04-30T01:30:26.134Z,101718.59
2023-04-30T01:32:52.913Z,101714.41
2023-04-30T01:35:19.805Z,101718.13
2023-04-30T01:38:10.973Z,101707.81
2023-04-30T01:40:48.535Z,101701.28
2023-04-30T01:43:23.679Z,101686.09
2023-04-30T01:46:28.601Z,101708.56
2023-04-30T01:49:40.556Z,101719.00
2023-04-30T01:52:18.021Z,101709.34
2023-04-30T01:55:05.513Z,101722.22
2023-04-30T01:57:38.656Z,101720.25
2023-04-30T02:00:10.977Z,101717.31
2023-04-30T02:02:37.988Z,101713.66
2023-04-30T02:05:05.159Z,101716.91
2023-04-30T02:07:44.843Z,101706.06
2023-04-30T02:10:14.580Z,101712.88
2023-04-30T02:12:41.588Z,101707.25
2023-04-30T02:15:09.440Z,101708.66
2023-04-30T02:17:36.467Z,101701.50
2023-04-30T02:20:03.703Z,101697.03
2023-04-30T02:22:30.454Z,101703.91
2023-04-30T02:24:57.614Z,101696.59
2023-04-30T02:27:26.182Z,101705.19
2023-04-30T02:29:54.305Z,101703.25
2023-04-30T02:32:21.877Z,101702.25
2023-04-30T02:34:48.856Z,101696.97
2023-04-30T02:37:15.791Z,101688.03
2023-04-30T02:39:42.731Z,101694.22
2023-04-30T02:42:09.642Z,101686.81
2023-04-30T02:44:36.390Z,101688.69
2023-04-30T02:47:03.287Z,101699.97
2023-04-30T02:49:30.223Z,101692.78
2023-04-30T02:51:57.023Z,101685.84
2023-04-30T02:54:23.842Z,101692.06
2023-04-30T02:56:50.713Z,101683.69
2023-04-30T02:59:17.419Z,101686.72
2023-04-30T03:01:44.306Z,101684.63
2023-04-30T03:04:11.181Z,101689.50
2023-04-30T03:06:38.121Z,101690.88
2023-04-30T03:09:05.242Z,101681.56
2023-04-30T03:11:32.118Z,101683.56
2023-04-30T03:13:58.928Z,101692.50
2023-04-30T03:16:25.831Z,101683.06
2023-04-30T03:18:52.607Z,101680.75
2023-04-30T03:21:19.426Z,101684.69
2023-04-30T03:23:46.407Z,101687.59
2023-04-30T03:26:13.263Z,101684.44
2023-04-30T03:28:40.069Z,101676.81
2023-04-30T03:31:06.980Z,101678.72
2023-04-30T03:33:33.797Z,101670.97
2023-04-30T03:36:00.527Z,101665.88
2023-04-30T03:38:27.304Z,101676.63
2023-04-30T03:40:54.012Z,101670.66
2023-04-30T03:43:20.958Z,101667.47
2023-04-30T03:45:47.774Z,101671.72
2023-04-30T03:48:14.616Z,101671.72
2023-04-30T03:50:41.424Z,101670.59
2023-04-30T03:53:08.260Z,101660.50
2023-04-30T03:55:35.771Z,101679.25
2023-04-30T03:58:02.669Z,101672.25
2023-04-30T04:00:29.699Z,101669.56
2023-04-30T04:02:59.469Z,101669.69
2023-04-30T04:05:26.843Z,101677.66
2023-04-30T04:07:53.619Z,101676.84
2023-04-30T04:10:20.670Z,101681.38
2023-04-30T04:12:47.450Z,101681.63
2023-04-30T04:15:14.318Z,101683.72
2023-04-30T04:17:41.380Z,101689.22
2023-04-30T04:20:08.877Z,101675.78
2023-04-30T04:22:36.145Z,101691.16
2023-04-30T04:25:03.201Z,101691.84
2023-04-30T04:27:30.091Z,101690.94
2023-04-30T04:29:57.187Z,101684.00
2023-04-30T04:32:24.422Z,101678.84
2023-04-30T04:34:51.251Z,101681.75
2023-04-30T04:37:18.255Z,101685.19
2023-04-30T04:39:45.293Z,101679.91
2023-04-30T04:42:12.191Z,101677.16
2023-04-30T04:44:39.470Z,101678.63
2023-04-30T04:47:06.276Z,101677.44
2023-04-30T04:49:33.028Z,101678.09
2023-04-30T04:51:59.846Z,101683.03
2023-04-30T04:54:26.880Z,101678.50
2023-04-30T04:56:53.696Z,101681.72
2023-04-30T04:59:21.099Z,101675.28
2023-04-30T05:01:48.072Z,101681.03
2023-04-30T05:04:14.985Z,101672.22
2023-04-30T05:06:42.966Z,101673.69
2023-04-30T05:09:10.206Z,101671.78
2023-04-30T05:11:36.997Z,101669.88
2023-04-30T05:14:03.867Z,101674.84
2023-04-30T05:16:30.702Z,101667.69
2023-04-30T05:18:57.483Z,101670.06
2023-04-30T05:21:26.158Z,101669.16
2023-04-30T05:23:52.944Z,101669.94
2023-04-30T05:26:19.708Z,101675.19
2023-04-30T05:28:46.798Z,101680.44
2023-04-30T05:31:13.612Z,101676.78
2023-04-30T05:33:41.212Z,101676.78
2023-04-30T05:36:08.226Z,101671.53
2023-04-30T05:38:34.976Z,101678.38
2023-04-30T05:41:01.730Z,101687.03
2023-04-30T05:43:28.733Z,101676.47
2023-04-30T05:45:55.752Z,101677.25
2023-04-30T05:48:22.583Z,101682.50
2023-04-30T05:50:49.348Z,101687.66
2023-04-30T05:53:16.131Z,101686.81
2023-04-30T05:55:43.104Z,101686.47
2023-04-30T05:58:09.894Z,101676.81
2023-04-30T06:00:36.656Z,101690.28
2023-04-30T06:03:03.460Z,101693.47
2023-04-30T06:05:30.302Z,101697.56
2023-04-30T06:07:57.044Z,101691.13
2023-04-30T06:10:24.543Z,101687.22
2023-04-30T06:12:51.549Z,101688.34
2023-04-30T06:15:18.432Z,101690.50
2023-04-30T06:17:45.181Z,101691.13
2023-04-30T06:20:12.411Z,101693.50
2023-04-30T06:22:41.235Z,101698.69
2023-04-30T06:25:08.569Z,101696.06
2023-04-30T06:27:35.554Z,101699.72
2023-04-30T06:30:02.262Z,101702.34
2023-04-30T06:32:29.013Z,101697.22
2023-04-30T06:34:56.049Z,101705.19
2023-04-30T06:37:22.858Z,101702.56
2023-04-30T06:39:49.766Z,101705.97
2023-04-30T06:42:16.548Z,101714.94
2023-04-30T06:44:43.352Z,101714.91
2023-04-30T06:47:10.154Z,101704.19
2023-04-30T06:49:36.965Z,101717.91
2023-04-30T06:52:03.758Z,101719.59
2023-04-30T06:54:30.523Z,101717.28
2023-04-30T06:56:57.268Z,101715.38
2023-04-30T06:59:24.061Z,101719.78
2023-04-30T07:01:50.966Z,101717.78
2023-04-30T07:04:20.129Z,101717.19
2023-04-30T07:06:46.913Z,101715.53
2023-04-30T07:09:15.816Z,101719.44
2023-04-30T07:11:42.911Z,101708.03
2023-04-30T07:14:09.736Z,101711.72
2023-04-30T07:16:36.444Z,101721.13
2023-04-30T07:19:03.832Z,101714.47
2023-04-30T07:21:32.814Z,101728.00
2023-04-30T07:23:59.645Z,101720.78
2023-04-30T07:26:26.697Z,101721.56
2023-04-30T07:28:53.522Z,101724.25
2023-04-30T07:31:20.485Z,101718.50
2023-04-30T07:33:47.544Z,101724.66
2023-04-30T07:36:14.278Z,101726.81
2023-04-30T07:38:40.999Z,101731.66
2023-04-30T07:41:09.633Z,101731.25
2023-04-30T07:43:36.356Z,101731.94
2023-04-30T07:46:04.294Z,101731.75
2023-04-30T07:48:31.399Z,101738.50
2023-04-30T07:50:58.565Z,101744.31
2023-04-30T07:53:25.362Z,101741.91
2023-04-30T07:55:52.268Z,101735.13
2023-04-30T07:58:19.046Z,101745.97
2023-04-30T08:00:45.956Z,101744.59
2023-04-30T08:03:12.887Z,101748.09
2023-04-30T08:05:41.194Z,101739.78
2023-04-30T08:08:08.262Z,101754.44
2023-04-30T08:10:35.285Z,101755.50
2023-04-30T08:13:02.022Z,101754.38
2023-04-30T08:15:29.558Z,101764.38
2023-04-30T08:17:57.479Z,101769.75
2023-04-30T08:20:24.447Z,101760.69
2023-04-30T08:22:51.430Z,101765.50
2023-04-30T08:25:18.241Z,101774.72
2023-04-30T08:27:45.074Z,101767.91
2023-04-30T08:30:11.893Z,101762.53
2023-04-30T08:32:38.823Z,101771.69
2023-04-30T08:35:06.621Z,101768.13
2023-04-30T08:37:33.660Z,101777.41
2023-04-30T08:40:00.903Z,101765.66
2023-04-30T08:42:37.408Z,101768.25
2023-04-30T08:45:04.885Z,101763.44
2023-04-30T08:47:32.063Z,101761.75
2023-04-30T08:49:58.854Z,101753.19
2023-04-30T08:52:28.679Z,101748.38
2023-04-30T08:54:57.847Z,101758.66
2023-04-30T08:57:24.754Z,101753.53
2023-04-30T08:59:51.533Z,101755.16
2023-04-30T09:02:18.318Z,101749.03
2023-04-30T09:04:45.951Z,101747.16
2023-04-30T09:07:14.618Z,101744.97
2023-04-30T09:09:41.848Z,101737.44
2023-04-30T09:12:19.998Z,101739.84
2023-04-30T09:15:01.681Z,101734.41
2023-04-30T09:17:28.575Z,101733.03
2023-04-30T09:20:06.968Z,101728.22
2023-04-30T09:22:34.549Z,101724.03
2023-04-30T09:25:01.349Z,101719.75
2023-04-30T09:27:28.124Z,101731.75
2023-04-30T09:29:55.145Z,101727.16
2023-04-30T09:32:22.618Z,101722.03
2023-04-30T09:34:49.709Z,101728.72
2023-04-30T09:37:16.615Z,101731.13
2023-04-30T09:39:56.706Z,101720.81
2023-04-30T09:42:23.791Z,101731.81
2023-04-30T09:44:53.826Z,101725.94
2023-04-30T09:47:21.299Z,101729.00
2023-04-30T09:49:51.882Z,101730.97
2023-04-30T09:52:20.258Z,101728.72
2023-04-30T09:54:47.988Z,101736.53
2023-04-30T09:57:16.103Z,101738.44
2023-04-30T09:59:47.013Z,101737.91
2023-04-30T10:02:16.623Z,101739.25
2023-04-30T10:04:45.007Z,101745.72
2023-04-30T10:07:22.834Z,101750.47
2023-04-30T10:09:55.260Z,101746.59
2023-04-30T10:13:01.677Z,101739.16
2023-04-30T10:15:39.448Z,101742.09
2023-04-30T10:18:11.435Z,101747.84
2023-04-30T10:20:40.164Z,101741.38
2023-04-30T10:23:08.560Z,101742.50
2023-04-30T10:25:36.059Z,101743.13
2023-04-30T10:28:04.895Z,101739.53
2023-04-30T10:30:32.933Z,101745.63
2023-04-30T10:33:24.620Z,101740.91
2023-04-30T10:35:59.056Z,101747.59
2023-04-30T10:38:29.148Z,101747.09
2023-04-30T10:41:00.815Z,101740.94
2023-04-30T10:43:30.840Z,101740.78
2023-04-30T10:45:58.842Z,101749.88
2023-04-30T10:48:27.316Z,101745.78
2023-04-30T10:50:59.182Z,101750.03
2023-04-30T10:53:28.051Z,101756.41
2023-04-30T10:56:09.249Z,101760.91
2023-04-30T10:58:38.871Z,101762.41
2023-04-30T11:01:17.667Z,101757.38
2023-04-30T11:04:06.401Z,101765.81
2023-04-30T11:06:54.838Z,101772.03
2023-04-30T11:09:41.098Z,101767.19
2023-04-30T11:12:28.749Z,101763.44
2023-04-30T11:15:24.730Z,101764.78
2023-04-30T11:17:51.992Z,101758.69
2023-04-30T11:20:24.046Z,101768.50
2023-04-30T11:23:17.448Z,101761.38
2023-04-30T11:25:55.072Z,101756.53
2023-04-30T11:28:25.233Z,101760.81
2023-04-30T11:30:57.055Z,101756.66
2023-04-30T11:33:28.876Z,101759.66
2023-04-30T11:35:57.016Z,101747.63
2023-04-30T11:38:28.864Z,101757.75
2023-04-30T11:40:57.689Z,101751.25
2023-04-30T11:43:26.424Z,101751.69
2023-04-30T11:46:12.443Z,101741.28
2023-04-30T11:48:42.359Z,101740.81
2023-04-30T11:51:20.460Z,101746.09
2023-04-30T11:53:48.997Z,101744.13
2023-04-30T11:56:24.326Z,101727.69
2023-04-30T11:58:53.594Z,101740.53
2023-04-30T12:01:21.364Z,101726.53
2023-04-30T12:03:50.280Z,101744.91
2023-04-30T12:06:30.199Z,101736.31
2023-04-30T12:08:59.298Z,101730.47
2023-04-30T12:11:28.454Z,101733.84
2023-04-30T12:14:10.906Z,101743.13
2023-04-30T12:16:48.370Z,101737.22
2023-04-30T12:19:19.975Z,101738.06
2023-04-30T12:21:48.726Z,101742.56
2023-04-30T12:24:17.932Z,101741.16
2023-04-30T12:26:45.387Z,101742.56
2023-04-30T12:29:16.445Z,101743.84
2023-04-30T12:31:43.446Z,101748.19
2023-04-30T12:34:13.494Z,101752.38
2023-04-30T12:36:44.956Z,101753.22
2023-04-30T12:39:13.159Z,101753.97
2023-04-30T12:41:42.255Z,101758.13
2023-04-30T12:44:23.807Z,101755.22
2023-04-30T12:46:56.462Z,101753.63
2023-04-30T12:49:31.035Z,101744.97
2023-04-30T12:52:07.700Z,101751.31
2023-04-30T12:54:36.154Z,101749.59
2023-04-30T12:57:10.983Z,101739.66
2023-04-30T12:59:59.510Z,101748.94
2023-04-30T13:02:29.481Z,101748.34
2023-04-30T13:04:57.071Z,101760.66
2023-04-30T13:07:23.999Z,101755.84
2023-04-30T13:09:50.803Z,101762.41
2023-04-30T13:12:17.616Z,101750.06
2023-04-30T13:14:44.420Z,101746.81
2023-04-30T13:17:13.954Z,101766.81
2023-04-30T13:19:40.961Z,101762.88
2023-04-30T13:22:07.743Z,101761.25
2023-04-30T13:24:34.608Z,101757.75
2023-04-30T13:27:02.829Z,101766.56
2023-04-30T13:29:29.958Z,101770.75
2023-04-30T13:31:56.973Z,101765.31
2023-04-30T13:34:23.890Z,101761.16
2023-04-30T13:36:52.127Z,101767.78
2023-04-30T13:39:19.821Z,101761.72
2023-04-30T13:41:48.027Z,101774.25
2023-04-30T13:44:14.797Z,101768.81
2023-04-30T13:46:41.716Z,101765.69
2023-04-30T13:49:08.525Z,101770.28
2023-04-30T13:51:35.388Z,101765.78
2023-04-30T13:54:02.211Z,101764.72
2023-04-30T13:56:29.207Z,101764.72
2023-04-30T13:58:57.296Z,101760.50
2023-04-30T14:01:24.217Z,101775.88
2023-04-30T14:03:51.091Z,101767.75
2023-04-30T14:06:18.075Z,101766.88
2023-04-30T14:08:44.868Z,101776.31
2023-04-30T14:11:11.637Z,101767.78
2023-04-30T14:13:38.352Z,101778.06
2023-04-30T14:16:09.449Z,101773.09
2023-04-30T14:18:36.108Z,101774.25
2023-04-30T14:21:02.859Z,101773.72
2023-04-30T14:23:29.666Z,101767.78
2023-04-30T14:25:56.780Z,101766.13
2023-04-30T14:28:24.144Z,101772.88
2023-04-30T14:30:50.937Z,101767.56
2023-04-30T14:33:17.774Z,101766.97
2023-04-30T14:35:45.635Z,101763.84
2023-04-30T14:38:12.465Z,101758.78
2023-04-30T14:40:39.231Z,101761.78
2023-04-30T14:43:05.959Z,101760.00
2023-04-30T14:45:33.860Z,101753.19
2023-04-30T14:48:02.558Z,101754.06
2023-04-30T14:50:31.633Z,101755.66
2023-04-30T14:52:58.415Z,101757.09
2023-04-30T14:55:25.209Z,101762.88
2023-04-30T14:57:52.047Z,101749.81
2023-04-30T15:00:18.943Z,101760.28
2023-04-30T15:02:45.774Z,101762.38
2023-04-30T15:05:12.837Z,101761.16
2023-04-30T15:07:39.844Z,101764.53
2023-04-30T15:10:07.819Z,101768.72
2023-04-30T15:12:35.746Z,101759.06
2023-04-30T15:15:04.755Z,101750.75
2023-04-30T15:17:34.951Z,101757.34
2023-04-30T15:20:03.877Z,101764.09
2023-04-30T15:22:30.645Z,101761.88
2023-04-30T15:24:59.203Z,101765.78
2023-04-30T15:27:28.172Z,101770.28
2023-04-30T15:29:55.479Z,101768.63
2023-04-30T15:32:22.455Z,101760.66
2023-04-30T15:34:49.206Z,101772.16
2023-04-30T15:37:16.063Z,101767.69
2023-04-30T15:39:42.793Z,101756.78
2023-04-30T15:42:09.527Z,101750.75
2023-04-30T15:44:36.553Z,101760.06
2023-04-30T15:47:03.451Z,101761.41
2023-04-30T15:49:30.330Z,101758.00
2023-04-30T15:51:57.110Z,101762.31
2023-04-30T15:54:23.964Z,101758.75
2023-04-30T15:56:51.725Z,101764.66
2023-04-30T15:59:19.729Z,101760.00
2023-04-30T16:01:46.794Z,101757.41
2023-04-30T16:04:13.641Z,101751.78
2023-04-30T16:06:40.814Z,101752.13
2023-04-30T16:09:08.963Z,101761.84
2023-04-30T16:11:36.173Z,101756.00
2023-04-30T16:14:03.072Z,101761.19
2023-04-30T16:16:30.063Z,101777.94
2023-04-30T16:18:57.379Z,101772.69
2023-04-30T16:21:24.728Z,101765.16
2023-04-30T16:23:51.563Z,101762.56
2023-04-30T16:26:18.426Z,101765.31
2023-04-30T16:28:46.490Z,101772.53
2023-04-30T16:31:15.633Z,101780.56
2023-04-30T16:33:43.054Z,101771.91
2023-04-30T16:36:11.174Z,101780.72
2023-04-30T16:38:37.946Z,101781.84
2023-04-30T16:41:04.905Z,101778.16
2023-04-30T16:43:31.734Z,101789.69
2023-04-30T16:45:58.615Z,101780.34
2023-04-30T16:48:25.480Z,101798.19
2023-04-30T16:50:52.280Z,101789.84
2023-04-30T16:53:19.038Z,101789.88
2023-04-30T16:55:45.763Z,101791.91
2023-04-30T16:58:12.553Z,101786.50
2023-04-30T17:00:39.571Z,101788.00
2023-04-30T17:03:06.432Z,101788.41
2023-04-30T17:05:33.765Z,101779.94
2023-04-30T17:08:00.636Z,101788.00
2023-04-30T17:10:30.063Z,101786.94
2023-04-30T17:12:59.594Z,101787.69
2023-04-30T17:15:26.708Z,101784.00
2023-04-30T17:17:53.947Z,101791.28
2023-04-30T17:20:20.979Z,101783.44
2023-04-30T17:22:47.788Z,101790.00
2023-04-30T17:25:15.014Z,101786.59
2023-04-30T17:27:41.851Z,101801.84
2023-04-30T17:30:09.665Z,101794.41
2023-04-30T17:32:36.698Z,101794.22
2023-04-30T17:35:06.210Z,101798.66
2023-04-30T17:37:33.211Z,101808.06
2023-04-30T17:39:59.924Z,101810.44
2023-04-30T17:42:27.029Z,101804.59
2023-04-30T17:44:53.789Z,101808.28
2023-04-30T17:47:23.013Z,101804.47
2023-04-30T17:49:50.088Z,101806.88
2023-04-30T17:52:16.847Z,101809.75
2023-04-30T17:54:43.575Z,101812.38
2023-04-30T17:57:10.343Z,101807.47
2023-04-30T17:59:38.824Z,101810.53
2023-04-30T18:02:05.934Z,101797.72
2023-04-30T18:04:32.787Z,101813.09
2023-04-30T18:06:59.547Z,101809.97
2023-04-30T18:09:26.371Z,101819.16
2023-04-30T18:11:54.190Z,101817.19
2023-04-30T18:14:20.989Z,101811.91
2023-04-30T18:16:47.926Z,101812.94
2023-04-30T18:19:14.800Z,101813.78
2023-04-30T18:21:41.557Z,101815.88
2023-04-30T18:24:08.281Z,101816.63
2023-04-30T18:26:35.084Z,101808.78
2023-04-30T18:29:02.236Z,101816.25
2023-04-30T18:31:30.814Z,101814.16
2023-04-30T18:33:57.691Z,101815.56
2023-04-30T18:36:24.947Z,101813.00
2023-04-30T18:38:52.152Z,101816.19
2023-04-30T18:41:21.219Z,101812.59
2023-04-30T18:43:47.934Z,101822.50
2023-04-30T18:46:15.177Z,101827.69
2023-04-30T18:48:41.980Z,101816.81
2023-04-30T18:51:08.788Z,101823.44
2023-04-30T18:53:36.816Z,101825.69
2023-04-30T18:56:03.593Z,101826.81
2023-04-30T18:58:30.333Z,101825.09
2023-04-30T19:00:58.174Z,101815.75
2023-04-30T19:03:25.309Z,101823.16
2023-04-30T19:05:57.664Z,101817.31
2023-04-30T19:08:24.772Z,101825.56
2023-04-30T19:10:53.334Z,101820.63
2023-04-30T19:13:20.198Z,101830.50
2023-04-30T19:15:48.814Z,101836.97
2023-04-30T19:18:16.635Z,101837.91
2023-04-30T19:20:43.513Z,101849.81
2023-04-30T19:23:10.503Z,101849.31
2023-04-30T19:25:37.854Z,101855.25
2023-04-30T19:28:04.722Z,101852.59
2023-04-30T19:30:31.527Z,101866.00
2023-04-30T19:32:58.347Z,101863.72
2023-04-30T19:35:25.122Z,101862.16
2023-04-30T19:37:52.025Z,101867.59
2023-04-30T19:40:19.007Z,101858.00
2023-04-30T19:42:47.682Z,101860.63
2023-04-30T19:45:14.440Z,101863.41
2023-04-30T19:47:41.346Z,101862.94
2023-04-30T19:50:08.900Z,101867.50
2023-04-30T19:52:35.744Z,101870.25
2023-04-30T19:55:02.626Z,101874.63
2023-04-30T19:57:34.906Z,101871.94
2023-04-30T20:00:04.528Z,101883.47
2023-04-30T20:02:31.380Z,101891.38
2023-04-30T20:04:58.336Z,101891.47
2023-04-30T20:07:25.226Z,101893.25
2023-04-30T20:09:52.148Z,101894.84
2023-04-30T20:12:18.903Z,101893.94
2023-04-30T20:14:45.752Z,101899.03
2023-04-30T20:17:14.734Z,101905.94
2023-04-30T20:19:41.610Z,101900.75
2023-04-30T20:22:13.258Z,101900.75
2023-04-30T20:24:44.350Z,101899.91
2023-04-30T20:27:12.470Z,101899.81
2023-04-30T20:29:42.238Z,101904.28
2023-04-30T20:32:09.431Z,101900.13
2023-04-30T20:34:37.515Z,101891.59
2023-04-30T20:37:05.781Z,101899.50
2023-04-30T20:39:32.778Z,101903.84
2023-04-30T20:42:01.426Z,101905.53
2023-04-30T20:44:28.440Z,101910.72
2023-04-30T20:46:55.250Z,101904.63
2023-04-30T20:49:21.973Z,101916.22
2023-04-30T20:51:48.784Z,101919.81
2023-04-30T20:54:15.518Z,101908.50
2023-04-30T20:56:45.109Z,101913.78
2023-04-30T20:59:12.020Z,101911.22
2023-04-30T21:01:39.121Z,101921.81
2023-04-30T21:04:06.492Z,101920.34
2023-04-30T21:06:33.670Z,101916.69
2023-04-30T21:09:00.698Z,101914.97
2023-04-30T21:11:28.931Z,101919.56
2023-04-30T21:13:55.736Z,101917.81
2023-04-30T21:16:23.085Z,101914.47
2023-04-30T21:18:49.927Z,101910.53
2023-04-30T21:21:17.131Z,101919.97
2023-04-30T21:23:46.639Z,101925.28
2023-04-30T21:26:14.742Z,101923.06
2023-04-30T21:28:41.858Z,101924.88
2023-04-30T21:31:09.483Z,101926.88
2023-04-30T21:33:37.670Z,101926.88
2023-04-30T21:36:07.715Z,101924.34
2023-04-30T21:38:34.806Z,101927.84
2023-04-30T21:41:01.634Z,101921.63
2023-04-30T21:43:28.389Z,101926.81
2023-04-30T21:45:55.201Z,101927.91
2023-04-30T21:48:22.060Z,101930.59
2023-04-30T21:50:49.851Z,101925.50
2023-04-30T21:53:16.658Z,101932.53
2023-04-30T21:55:43.450Z,101928.28
2023-04-30T21:58:10.461Z,101923.25
2023-04-30T22:00:38.611Z,101922.41
2023-04-30T22:03:05.500Z,101922.53
2023-04-30T22:05:32.632Z,101915.50
2023-04-30T22:08:00.079Z,101919.91
2023-04-30T22:10:26.854Z,101924.41
2023-04-30T22:12:53.647Z,101923.53
2023-04-30T22:15:20.405Z,101927.03
2023-04-30T22:17:47.801Z,101931.34
2023-04-30T22:20:14.758Z,101932.38
2023-04-30T22:22:41.698Z,101937.63
2023-04-30T22:25:10.093Z,101932.44
2023-04-30T22:27:37.282Z,101933.34
2023-04-30T22:30:04.320Z,101937.91
2023-04-30T22:32:32.462Z,101937.19
2023-04-30T22:34:59.299Z,101930.41
2023-04-30T22:37:26.466Z,101935.66
2023-04-30T22:39:53.375Z,101951.44
2023-04-30T22:42:20.258Z,101949.72
2023-04-30T22:44:47.077Z,101946.00
2023-04-30T22:47:13.995Z,101957.25
2023-04-30T22:49:41.730Z,101947.72
2023-04-30T22:52:08.924Z,101947.72
2023-04-30T22:54:36.007Z,101954.78
2023-04-30T22:57:03.199Z,101947.78
2023-04-30T22:59:30.036Z,101950.41
2023-04-30T23:01:57.325Z,101949.56
2023-04-30T23:04:24.236Z,101947.09
2023-04-30T23:06:51.126Z,101943.69
2023-04-30T23:09:17.885Z,101949.78
2023-04-30T23:11:45.098Z,101943.81
2023-04-30T23:14:11.875Z,101942.28
2023-04-30T23:16:42.799Z,101953.84
2023-04-30T23:22:01.096Z,101950.78
2023-04-30T23:24:28.027Z,101963.16
2023-04-30T23:26:55.390Z,101962.22
2023-04-30T23:29:22.155Z,101963.06
2023-04-30T23:31:48.974Z,101963.16
2023-04-30T23:34:15.985Z,101958.88
2023-04-30T23:36:43.316Z,101968.50
2023-04-30T23:39:10.479Z,101970.25
2023-04-30T23:41:37.204Z,101965.94
2023-04-30T23:44:04.236Z,101959.91
2023-04-30T23:46:31.060Z,101959.78
2023-04-30T23:48:58.640Z,101956.38
2023-04-30T23:51:25.477Z,101955.53
2023-04-30T23:53:52.252Z,101953.88
2023-04-30T23:56:18.994Z,101957.59
2023-04-30T23:58:45.775Z,101956.94
